createdAt,value
2023-02-15T00:02:48.861Z,66.33
2023-02-15T00:04:07.400Z,94.00
2023-02-15T00:05:36.671Z,99.33
2023-02-15T00:06:17.071Z,97.67
2023-02-15T00:07:44.780Z,102.00
2023-02-15T00:09:04.984Z,100.00
2023-02-15T00:09:43.651Z,103.00
2023-02-15T00:10:24.573Z,100.67
2023-02-15T00:11:06.911Z,100.00
2023-02-15T00:11:52.101Z,102.33
2023-02-15T00:12:34.841Z,102.33
2023-02-15T00:13:17.069Z,102.00
2023-02-15T00:13:56.914Z,102.00
2023-02-15T00:14:36.105Z,102.67
2023-02-15T00:15:15.006Z,100.33
2023-02-15T00:15:54.580Z,99.67
2023-02-15T00:16:37.667Z,101.33
2023-02-15T00:17:25.800Z,103.33
2023-02-15T00:18:05.114Z,99.33
2023-02-15T00:18:44.059Z,99.33
2023-02-15T00:19:24.427Z,99.00
2023-02-15T00:20:28.508Z,101.00
2023-02-15T00:21:08.684Z,100.33
2023-02-15T00:21:49.879Z,100.33
2023-02-15T00:23:11.302Z,101.67
2023-02-15T00:24:33.311Z,103.33
2023-02-15T00:26:08.267Z,102.00
2023-02-15T00:26:55.973Z,101.00
2023-02-15T00:27:37.780Z,101.00
2023-02-15T00:28:26.817Z,101.00
2023-02-15T00:29:06.272Z,100.33
2023-02-15T00:30:23.937Z,104.00
2023-02-15T00:31:09.178Z,103.33
2023-02-15T00:31:49.752Z,101.67
2023-02-15T00:33:49.015Z,101.00
2023-02-15T00:34:35.852Z,101.00
2023-02-15T00:35:53.873Z,101.00
2023-02-15T00:36:36.205Z,101.00
2023-02-15T00:37:15.316Z,101.00
2023-02-15T00:38:53.057Z,100.00
2023-02-15T00:40:58.414Z,100.00
2023-02-15T00:42:18.144Z,100.67
2023-02-15T00:42:57.312Z,100.00
2023-02-15T00:43:48.877Z,101.00
2023-02-15T00:44:39.180Z,101.00
2023-02-15T00:45:22.343Z,101.00
2023-02-15T00:46:03.136Z,101.00
2023-02-15T00:46:43.601Z,101.67
2023-02-15T00:47:47.701Z,101.33
2023-02-15T00:49:18.515Z,102.67
2023-02-15T00:50:36.672Z,104.00
2023-02-15T00:51:57.055Z,103.00
2023-02-15T00:52:36.098Z,104.33
2023-02-15T00:53:29.755Z,104.67
2023-02-15T00:54:09.041Z,130.33
2023-02-15T00:54:50.994Z,127.33
2023-02-15T00:55:30.233Z,122.33
2023-02-15T00:56:12.764Z,120.33
2023-02-15T00:57:01.501Z,123.00
2023-02-15T00:57:44.064Z,124.00
2023-02-15T00:58:30.719Z,122.33
2023-02-15T00:59:09.874Z,121.67
2023-02-15T00:59:49.119Z,122.67
2023-02-15T01:01:06.596Z,124.67
2023-02-15T01:01:49.040Z,124.33
2023-02-15T01:02:30.822Z,124.00
2023-02-15T01:03:15.014Z,121.00
2023-02-15T01:03:54.301Z,120.00
2023-02-15T01:04:34.395Z,120.00
2023-02-15T01:05:15.773Z,120.00
2023-02-15T01:06:42.889Z,120.33
2023-02-15T01:07:25.215Z,121.00
2023-02-15T01:08:04.506Z,121.00
2023-02-15T01:08:43.825Z,121.00
2023-02-15T01:09:32.928Z,127.00
2023-02-15T01:10:20.136Z,127.33
2023-02-15T01:11:11.958Z,129.67
2023-02-15T01:11:51.079Z,131.00
2023-02-15T01:12:31.571Z,135.33
2023-02-15T01:13:16.511Z,137.33
2023-02-15T01:14:06.504Z,142.00
2023-02-15T01:14:46.237Z,140.67
2023-02-15T01:15:38.104Z,145.00
2023-02-15T01:16:17.882Z,146.33
2023-02-15T01:16:57.122Z,143.67
2023-02-15T01:17:52.128Z,142.33
2023-02-15T01:18:31.781Z,144.67
2023-02-15T01:19:49.133Z,149.00
2023-02-15T01:20:39.994Z,152.00
2023-02-15T01:21:35.514Z,152.33
2023-02-15T01:22:16.405Z,151.33
2023-02-15T01:23:34.120Z,148.33
2023-02-15T01:25:02.786Z,146.67
2023-02-15T01:25:45.407Z,148.00
2023-02-15T01:26:25.116Z,154.33
2023-02-15T01:27:04.317Z,155.33
2023-02-15T01:29:09.934Z,151.33
2023-02-15T01:29:49.717Z,149.33
2023-02-15T01:31:12.672Z,145.67
2023-02-15T01:32:35.205Z,155.00
2023-02-15T01:35:25.062Z,161.00
2023-02-15T01:36:08.606Z,160.67
2023-02-15T01:36:57.918Z,159.33
2023-02-15T01:37:38.026Z,158.33
2023-02-15T01:38:20.183Z,159.33
2023-02-15T01:38:59.320Z,162.33
2023-02-15T01:39:40.280Z,161.33
2023-02-15T01:40:20.706Z,159.00
2023-02-15T01:41:23.248Z,155.33
2023-02-15T01:42:05.477Z,149.00
2023-02-15T01:42:54.348Z,140.00
2023-02-15T01:43:48.626Z,138.33
2023-02-15T01:44:47.891Z,138.00
2023-02-15T01:45:32.647Z,139.00
2023-02-15T01:46:19.875Z,138.33
2023-02-15T01:47:54.710Z,138.00
2023-02-15T01:49:22.301Z,131.00
2023-02-15T01:51:05.076Z,127.33
2023-02-15T01:52:56.914Z,127.67
2023-02-15T01:53:43.488Z,121.67
2023-02-15T01:54:33.618Z,113.00
2023-02-15T01:55:17.238Z,113.67
2023-02-15T01:56:18.508Z,111.67
2023-02-15T01:57:04.750Z,109.67
2023-02-15T01:58:21.844Z,108.67
2023-02-15T01:59:12.790Z,108.67
2023-02-15T02:00:32.823Z,109.67
2023-02-15T02:01:20.493Z,109.00
2023-02-15T02:03:37.702Z,110.00
2023-02-15T02:04:20.235Z,110.00
2023-02-15T02:05:08.943Z,110.67
2023-02-15T02:05:47.858Z,112.00
2023-02-15T02:06:27.829Z,112.33
2023-02-15T02:07:20.738Z,114.67
2023-02-15T02:08:55.008Z,123.67
2023-02-15T02:10:21.245Z,123.00
2023-02-15T02:11:01.235Z,123.00
2023-02-15T02:11:42.382Z,123.67
2023-02-15T02:13:09.733Z,119.00
2023-02-15T02:13:48.881Z,117.00
2023-02-15T02:14:52.967Z,116.00
2023-02-15T02:15:31.935Z,115.67
2023-02-15T02:16:37.102Z,116.00
2023-02-15T02:17:15.765Z,115.33
2023-02-15T02:18:22.774Z,115.00
2023-02-15T02:20:01.540Z,112.00
2023-02-15T02:21:54.835Z,110.67
2023-02-15T02:22:34.185Z,107.00
2023-02-15T02:23:56.733Z,104.00
2023-02-15T02:24:38.849Z,103.33
2023-02-15T02:25:44.553Z,103.67
2023-02-15T02:26:27.029Z,96.00
2023-02-15T02:27:30.738Z,95.00
2023-02-15T02:28:10.722Z,97.00
2023-02-15T02:29:12.780Z,97.00
2023-02-15T02:29:52.198Z,96.00
2023-02-15T02:31:09.860Z,96.00
2023-02-15T02:31:52.138Z,96.67
2023-02-15T02:33:08.828Z,95.67
2023-02-15T02:33:47.999Z,95.00
2023-02-15T02:34:53.604Z,95.67
2023-02-15T02:36:52.937Z,92.67
2023-02-15T02:38:24.958Z,93.00
2023-02-15T02:39:19.586Z,92.67
2023-02-15T02:39:58.917Z,88.33
2023-02-15T02:40:57.861Z,85.67
2023-02-15T02:41:37.016Z,84.67
2023-02-15T02:42:30.862Z,81.33
2023-02-15T02:43:46.869Z,78.00
2023-02-15T02:44:36.057Z,80.67
2023-02-15T02:46:42.257Z,80.67
2023-02-15T02:48:13.532Z,77.00
2023-02-15T02:49:31.943Z,78.00
2023-02-15T02:50:19.582Z,79.00
2023-02-15T02:50:59.105Z,79.00
2023-02-15T02:51:38.177Z,79.00
2023-02-15T02:52:36.116Z,79.00
2023-02-15T02:53:18.170Z,80.67
2023-02-15T02:54:05.519Z,81.67
2023-02-15T02:54:46.267Z,85.00
2023-02-15T02:55:49.902Z,88.00
2023-02-15T02:57:06.874Z,95.33
2023-02-15T02:57:58.679Z,98.00
2023-02-15T02:58:42.050Z,97.67
2023-02-15T02:59:36.377Z,99.00
2023-02-15T03:00:17.702Z,98.00
2023-02-15T03:01:21.786Z,98.33
2023-02-15T03:04:11.956Z,102.67
2023-02-15T03:05:31.359Z,98.33
2023-02-15T03:06:35.929Z,98.00
2023-02-15T03:07:23.764Z,97.00
2023-02-15T03:08:32.630Z,97.00
2023-02-15T03:09:58.537Z,109.67
2023-02-15T03:10:38.846Z,108.00
2023-02-15T03:11:31.117Z,108.00
2023-02-15T03:12:32.397Z,107.00
2023-02-15T03:15:52.753Z,99.00
2023-02-15T03:16:34.406Z,93.33
2023-02-15T03:18:04.131Z,89.67
2023-02-15T03:19:32.020Z,85.67
2023-02-15T03:20:53.715Z,86.67
2023-02-15T03:21:33.741Z,87.00
2023-02-15T03:22:29.977Z,88.00
2023-02-15T03:24:28.862Z,101.00
2023-02-15T03:25:22.381Z,101.33
2023-02-15T03:26:07.026Z,102.00
2023-02-15T03:27:35.783Z,117.67
2023-02-15T03:28:35.640Z,124.33
2023-02-15T03:31:04.061Z,130.33
2023-02-15T03:32:34.824Z,129.33
2023-02-15T03:33:17.088Z,131.33
2023-02-15T03:34:35.891Z,134.33
2023-02-15T03:36:20.951Z,149.33
2023-02-15T03:37:38.770Z,164.33
2023-02-15T03:38:27.135Z,164.67
2023-02-15T03:40:31.847Z,159.00
2023-02-15T03:41:15.820Z,159.67
2023-02-15T03:42:05.802Z,162.33
2023-02-15T03:43:02.122Z,162.67
2023-02-15T03:44:30.875Z,157.00
2023-02-15T03:45:18.773Z,165.00
2023-02-15T03:46:13.606Z,164.33
2023-02-15T03:47:20.472Z,144.67
2023-02-15T03:47:59.834Z,127.33
2023-02-15T03:48:53.404Z,128.00
2023-02-15T03:49:56.624Z,119.33
2023-02-15T03:50:57.839Z,124.67
2023-02-15T03:53:00.094Z,128.67
2023-02-15T03:53:39.926Z,121.00
2023-02-15T03:54:45.209Z,115.67
2023-02-15T03:56:05.287Z,122.00
2023-02-15T03:57:12.947Z,122.33
2023-02-15T03:58:12.080Z,120.67
2023-02-15T04:01:17.382Z,113.33
2023-02-15T04:02:14.057Z,116.33
2023-02-15T04:04:02.134Z,119.33
2023-02-15T04:05:05.415Z,121.00
2023-02-15T04:05:47.268Z,121.00
2023-02-15T04:06:34.093Z,121.00
2023-02-15T04:07:16.232Z,121.00
2023-02-15T04:08:20.065Z,120.67
2023-02-15T04:08:59.709Z,121.00
2023-02-15T04:09:57.724Z,121.00
2023-02-15T04:10:54.425Z,121.33
2023-02-15T04:12:14.597Z,141.33
2023-02-15T04:13:18.319Z,149.00
2023-02-15T04:13:58.976Z,143.33
2023-02-15T04:15:28.768Z,142.33
2023-02-15T04:16:32.865Z,141.00
2023-02-15T04:19:10.779Z,131.33
2023-02-15T04:20:10.169Z,130.00
2023-02-15T04:22:50.753Z,138.00
2023-02-15T04:24:51.634Z,139.00
2023-02-15T04:26:27.998Z,136.33
2023-02-15T04:27:08.223Z,133.33
2023-02-15T04:28:13.427Z,132.00
2023-02-15T04:29:37.300Z,134.00
2023-02-15T04:30:16.838Z,134.00
2023-02-15T04:30:57.220Z,134.33
2023-02-15T04:31:36.417Z,136.00
2023-02-15T04:32:18.263Z,142.00
2023-02-15T04:33:00.137Z,148.67
2023-02-15T04:33:39.247Z,148.67
2023-02-15T04:34:18.482Z,151.67
2023-02-15T04:35:07.600Z,162.00
2023-02-15T04:35:55.026Z,154.33
2023-02-15T04:36:35.211Z,145.00
2023-02-15T04:37:52.767Z,150.67
2023-02-15T04:38:33.294Z,156.33
2023-02-15T04:39:36.129Z,164.67
2023-02-15T04:40:19.078Z,166.67
2023-02-15T04:41:07.997Z,168.67
2023-02-15T04:41:54.962Z,192.33
2023-02-15T04:42:37.415Z,201.00
2023-02-15T04:43:16.143Z,198.67
2023-02-15T04:44:02.478Z,191.33
2023-02-15T04:44:41.336Z,194.67
2023-02-15T04:45:28.874Z,192.00
2023-02-15T04:46:08.191Z,185.00
2023-02-15T04:46:51.785Z,203.67
2023-02-15T04:48:14.311Z,268.33
2023-02-15T04:49:33.147Z,322.00
2023-02-15T04:50:20.028Z,306.33
2023-02-15T04:51:00.141Z,313.33
2023-02-15T04:51:40.282Z,328.33
2023-02-15T04:52:43.584Z,314.00
2023-02-15T04:53:59.840Z,274.67
2023-02-15T04:54:46.964Z,261.67
2023-02-15T04:55:36.054Z,252.00
2023-02-15T04:56:18.317Z,224.33
2023-02-15T04:57:21.798Z,226.00
2023-02-15T04:58:00.772Z,229.00
2023-02-15T04:58:43.210Z,227.67
2023-02-15T05:00:10.217Z,204.67
2023-02-15T05:00:49.340Z,207.33
2023-02-15T05:01:52.778Z,209.67
2023-02-15T05:02:32.843Z,217.33
2023-02-15T05:03:13.243Z,221.67
2023-02-15T05:03:53.104Z,256.67
2023-02-15T05:05:14.025Z,282.00
2023-02-15T05:06:39.255Z,271.33
2023-02-15T05:07:28.098Z,284.33
2023-02-15T05:08:08.483Z,284.00
2023-02-15T05:08:47.941Z,283.67
2023-02-15T05:09:28.276Z,270.67
2023-02-15T05:10:07.595Z,268.00
2023-02-15T05:10:51.236Z,267.67
2023-02-15T05:11:30.694Z,278.33
2023-02-15T05:12:10.202Z,287.00
2023-02-15T05:12:52.172Z,296.33
2023-02-15T05:13:34.439Z,306.33
2023-02-15T05:14:13.844Z,312.67
2023-02-15T05:14:57.665Z,316.33
2023-02-15T05:15:38.146Z,318.67
2023-02-15T05:16:25.210Z,327.00
2023-02-15T05:17:06.382Z,333.33
2023-02-15T05:17:48.266Z,353.67
2023-02-15T05:18:30.320Z,368.00
2023-02-15T05:19:13.842Z,367.33
2023-02-15T05:19:56.640Z,348.00
2023-02-15T05:20:37.208Z,329.33
2023-02-15T05:21:48.903Z,325.00
2023-02-15T05:22:55.876Z,341.33
2023-02-15T05:26:10.310Z,331.33
2023-02-15T05:27:15.530Z,306.33
2023-02-15T05:28:22.951Z,290.67
2023-02-15T05:30:22.956Z,277.67
2023-02-15T05:31:05.263Z,258.67
2023-02-15T05:31:45.502Z,234.33
2023-02-15T05:32:27.601Z,224.67
2023-02-15T05:33:08.133Z,226.33
2023-02-15T05:33:48.953Z,226.33
2023-02-15T05:35:06.822Z,225.00
2023-02-15T05:36:03.691Z,222.00
2023-02-15T05:36:50.286Z,225.33
2023-02-15T05:38:04.086Z,225.67
2023-02-15T05:38:44.371Z,209.00
2023-02-15T05:39:23.324Z,192.33
2023-02-15T05:40:12.774Z,178.00
2023-02-15T05:40:53.460Z,161.00
2023-02-15T05:43:59.072Z,145.67
2023-02-15T05:45:04.963Z,161.00
2023-02-15T05:45:51.916Z,263.00
2023-02-15T05:46:33.040Z,239.67
2023-02-15T05:47:37.162Z,238.00
2023-02-15T05:48:15.932Z,227.67
2023-02-15T05:48:55.285Z,222.00
2023-02-15T05:49:35.251Z,222.00
2023-02-15T05:50:14.323Z,222.67
2023-02-15T05:50:56.005Z,230.67
2023-02-15T05:51:49.542Z,250.67
2023-02-15T05:52:32.259Z,238.00
2023-02-15T05:53:14.642Z,216.67
2023-02-15T05:53:54.228Z,203.67
2023-02-15T05:54:41.077Z,204.33
2023-02-15T05:55:30.493Z,205.00
2023-02-15T05:56:13.095Z,203.00
2023-02-15T05:57:51.985Z,229.33
2023-02-15T05:58:56.113Z,320.67
2023-02-15T05:59:59.754Z,349.33
2023-02-15T06:00:38.238Z,377.00
2023-02-15T06:01:58.209Z,394.00
2023-02-15T06:02:44.726Z,396.00
2023-02-15T06:03:28.584Z,393.33
2023-02-15T06:04:09.270Z,394.00
2023-02-15T06:04:56.068Z,389.00
2023-02-15T06:05:35.496Z,383.33
2023-02-15T06:06:17.412Z,374.33
2023-02-15T06:06:57.353Z,343.67
2023-02-15T06:08:00.558Z,329.00
2023-02-15T06:09:20.884Z,286.00
2023-02-15T06:10:09.252Z,276.33
2023-02-15T06:12:30.066Z,259.67
2023-02-15T06:13:10.308Z,252.00
2023-02-15T06:14:13.782Z,238.67
2023-02-15T06:14:55.484Z,228.67
2023-02-15T06:15:59.428Z,227.00
2023-02-15T06:16:38.002Z,223.33
2023-02-15T06:17:17.019Z,229.00
2023-02-15T06:17:57.310Z,249.00
2023-02-15T06:18:40.682Z,256.67
2023-02-15T06:19:22.093Z,276.33
2023-02-15T06:20:09.386Z,280.67
2023-02-15T06:21:01.153Z,278.33
2023-02-15T06:21:44.890Z,269.33
2023-02-15T06:22:25.239Z,259.00
2023-02-15T06:23:05.275Z,258.67
2023-02-15T06:23:45.391Z,256.67
2023-02-15T06:24:24.215Z,251.67
2023-02-15T06:25:03.494Z,240.00
2023-02-15T06:25:48.468Z,218.00
2023-02-15T06:26:30.223Z,221.67
2023-02-15T06:27:12.255Z,222.33
2023-02-15T06:28:30.204Z,192.67
2023-02-15T06:29:17.307Z,168.33
2023-02-15T06:29:56.475Z,144.00
2023-02-15T06:30:48.201Z,135.33
2023-02-15T06:31:28.254Z,157.67
2023-02-15T06:32:09.448Z,117.67
2023-02-15T06:32:48.856Z,111.00
2023-02-15T06:33:28.312Z,113.33
2023-02-15T06:34:15.025Z,76.00
2023-02-15T06:34:57.186Z,70.00
2023-02-15T06:35:49.305Z,75.00
2023-02-15T06:36:32.666Z,84.67
2023-02-15T06:37:12.227Z,77.00
2023-02-15T06:38:02.473Z,67.33
2023-02-15T06:40:50.140Z,143.00
2023-02-15T06:41:53.666Z,195.00
2023-02-15T06:43:40.954Z,275.67
2023-02-15T06:44:45.015Z,229.00
2023-02-15T06:46:03.558Z,187.33
2023-02-15T06:46:43.441Z,170.33
2023-02-15T06:49:03.827Z,143.67
2023-02-15T06:49:43.652Z,131.33
2023-02-15T06:50:26.510Z,131.00
2023-02-15T06:51:06.281Z,130.00
2023-02-15T06:51:55.114Z,129.00
2023-02-15T06:52:34.675Z,126.33
2023-02-15T06:53:14.376Z,131.33
2023-02-15T06:54:46.131Z,131.00
2023-02-15T06:55:51.293Z,126.33
2023-02-15T06:58:30.879Z,124.00
2023-02-15T06:59:17.132Z,125.67
2023-02-15T07:00:37.192Z,129.33
2023-02-15T07:01:41.300Z,131.67
2023-02-15T07:02:59.041Z,138.67
2023-02-15T07:03:38.881Z,141.33
2023-02-15T07:04:21.373Z,149.33
2023-02-15T07:05:02.340Z,121.67
2023-02-15T07:05:41.417Z,116.67
2023-02-15T07:06:25.725Z,100.00
2023-02-15T07:07:52.235Z,84.00
2023-02-15T07:08:44.454Z,68.67
2023-02-15T07:10:28.304Z,74.00
2023-02-15T07:11:26.746Z,70.33
2023-02-15T07:15:08.721Z,80.67
2023-02-15T07:16:01.406Z,83.00
2023-02-15T07:16:44.393Z,84.00
2023-02-15T07:17:35.829Z,80.00
2023-02-15T07:18:16.704Z,81.67
2023-02-15T07:19:20.787Z,79.33
2023-02-15T07:23:18.307Z,77.67
2023-02-15T07:24:38.834Z,84.67
2023-02-15T07:25:22.475Z,86.00
2023-02-15T07:27:08.851Z,86.00
2023-02-15T07:27:49.276Z,89.33
2023-02-15T07:28:53.115Z,94.67
2023-02-15T07:32:10.304Z,100.00
2023-02-15T07:33:35.064Z,96.00
2023-02-15T07:34:28.173Z,96.67
2023-02-15T07:35:20.097Z,98.00
2023-02-15T07:36:12.565Z,98.67
2023-02-15T07:36:55.036Z,98.33
2023-02-15T07:37:59.783Z,97.00
2023-02-15T07:41:00.405Z,100.00
2023-02-15T07:41:43.077Z,104.00
2023-02-15T07:43:08.361Z,106.33
2023-02-15T07:44:13.471Z,105.00
2023-02-15T07:46:01.885Z,103.00
2023-02-15T07:47:39.294Z,86.00
2023-02-15T07:48:25.810Z,86.00
2023-02-15T07:52:51.932Z,2.33
2023-02-15T07:53:31.864Z,80.33
2023-02-15T07:54:11.284Z,97.67
2023-02-15T07:54:50.362Z,98.00
2023-02-15T07:55:33.996Z,101.00
2023-02-15T07:56:15.442Z,104.00
2023-02-15T07:57:23.944Z,99.00
2023-02-15T07:58:06.540Z,100.67
2023-02-15T07:59:33.088Z,111.33
2023-02-15T08:00:15.769Z,99.67
2023-02-15T08:01:21.930Z,94.67
2023-02-15T08:03:16.173Z,97.67
2023-02-15T08:05:14.645Z,103.33
2023-02-15T08:06:44.996Z,103.33
2023-02-15T08:07:25.780Z,98.67
2023-02-15T08:08:43.318Z,98.00
2023-02-15T08:09:23.515Z,98.00
2023-02-15T08:10:46.769Z,100.00
2023-02-15T08:11:52.992Z,100.33
2023-02-15T08:12:56.998Z,101.33
2023-02-15T08:14:30.881Z,102.33
2023-02-15T08:15:13.430Z,107.33
2023-02-15T08:17:09.598Z,114.00
2023-02-15T08:18:54.455Z,114.33
2023-02-15T08:19:35.836Z,109.33
2023-02-15T08:20:53.883Z,108.67
2023-02-15T08:21:44.476Z,104.67
2023-02-15T08:22:27.357Z,102.33
2023-02-15T08:23:15.931Z,99.33
2023-02-15T08:24:07.301Z,106.67
2023-02-15T08:24:52.982Z,106.33
2023-02-15T08:25:33.263Z,106.67
2023-02-15T08:26:22.888Z,103.33
2023-02-15T08:27:06.378Z,91.00
2023-02-15T08:27:47.097Z,92.67
2023-02-15T08:28:51.657Z,93.00
2023-02-15T08:30:13.170Z,96.67
2023-02-15T08:30:52.348Z,110.00
2023-02-15T08:31:35.435Z,105.33
2023-02-15T08:32:18.111Z,103.33
2023-02-15T08:33:00.460Z,104.00
2023-02-15T08:33:42.686Z,106.67
2023-02-15T08:34:25.970Z,112.00
2023-02-15T08:35:08.069Z,109.00
2023-02-15T08:35:50.381Z,104.67
2023-02-15T08:36:32.926Z,98.33
2023-02-15T08:37:12.341Z,99.33
2023-02-15T08:37:57.971Z,100.67
2023-02-15T08:38:38.988Z,103.00
2023-02-15T08:39:22.804Z,103.00
2023-02-15T08:40:03.662Z,98.67
2023-02-15T08:40:43.149Z,97.00
2023-02-15T08:41:32.829Z,95.00
2023-02-15T08:42:15.118Z,291.67
2023-02-15T08:43:04.258Z,146.00
2023-02-15T08:44:11.064Z,99.00
2023-02-15T08:47:05.108Z,172.00
2023-02-15T08:49:31.154Z,132.33
2023-02-15T08:53:12.836Z,43.67
2023-02-15T08:54:01.586Z,46.00
2023-02-15T08:54:41.307Z,44.67
2023-02-15T08:55:22.045Z,44.33
2023-02-15T08:56:11.570Z,99.00
2023-02-15T08:56:51.179Z,135.33
2023-02-15T08:58:11.732Z,75.67
2023-02-15T08:58:52.127Z,54.33
2023-02-15T09:01:21.926Z,31.67
2023-02-15T09:02:53.424Z,31.67
2023-02-15T09:03:33.037Z,44.33
2023-02-15T09:04:36.843Z,40.67
2023-02-15T09:05:40.589Z,33.33
2023-02-15T09:06:48.875Z,37.33
2023-02-15T09:09:32.213Z,37.33
2023-02-15T09:11:05.665Z,37.67
2023-02-15T09:11:48.032Z,39.33
2023-02-15T09:12:28.375Z,43.33
2023-02-15T09:13:08.073Z,115.33
2023-02-15T09:13:46.259Z,136.33
2023-02-15T09:14:27.730Z,246.00
2023-02-15T09:16:27.749Z,46.33
2023-02-15T09:17:10.106Z,39.00
2023-02-15T09:18:39.270Z,34.33
2023-02-15T09:19:22.887Z,26.33
2023-02-15T09:21:25.063Z,29.00
2023-02-15T09:22:03.955Z,27.33
2023-02-15T09:22:44.383Z,27.67
2023-02-15T09:23:27.202Z,43.00
2023-02-15T09:26:24.714Z,27.00
2023-02-15T09:27:04.360Z,24.00
2023-02-15T09:27:44.439Z,22.67
2023-02-15T09:28:25.710Z,23.33
2023-02-15T09:29:06.050Z,24.67
2023-02-15T09:29:47.122Z,27.67
2023-02-15T09:30:29.284Z,29.00
2023-02-15T09:31:24.659Z,32.00
2023-02-15T09:32:08.354Z,40.00
2023-02-15T09:32:48.845Z,41.67
2023-02-15T09:33:52.091Z,32.33
2023-02-15T09:34:35.099Z,32.00
2023-02-15T09:35:15.587Z,32.00
2023-02-15T09:35:58.093Z,29.67
2023-02-15T09:36:40.267Z,25.33
2023-02-15T09:38:36.959Z,29.33
2023-02-15T09:39:42.424Z,71.00
2023-02-15T09:41:21.873Z,83.33
2023-02-15T09:43:35.662Z,55.00
2023-02-15T09:44:34.630Z,43.00
2023-02-15T09:45:18.804Z,35.67
2023-02-15T09:46:24.020Z,33.33
2023-02-15T09:47:06.558Z,46.67
2023-02-15T09:48:05.742Z,44.67
2023-02-15T09:48:57.104Z,29.33
2023-02-15T09:50:10.685Z,22.67
2023-02-15T09:51:30.382Z,20.00
2023-02-15T09:52:37.635Z,25.33
2023-02-15T09:54:54.733Z,28.00
2023-02-15T09:56:00.438Z,24.33
2023-02-15T09:56:43.374Z,26.33
2023-02-15T09:57:43.898Z,27.00
2023-02-15T09:58:27.205Z,24.00
2023-02-15T09:59:50.485Z,21.67
2023-02-15T10:00:43.404Z,22.33
2023-02-15T10:01:26.093Z,22.00
2023-02-15T10:02:43.501Z,41.33
2023-02-15T10:03:38.818Z,52.00
2023-02-15T10:04:26.877Z,43.33
2023-02-15T10:05:48.654Z,46.00
2023-02-15T10:06:28.428Z,87.67
2023-02-15T10:07:31.592Z,86.00
2023-02-15T10:08:59.162Z,55.33
2023-02-15T10:10:06.384Z,77.00
2023-02-15T10:10:48.088Z,59.00
2023-02-15T10:12:03.693Z,39.67
2023-02-15T10:13:56.135Z,24.00
2023-02-15T10:15:13.314Z,20.00
2023-02-15T10:16:32.020Z,24.33
2023-02-15T10:17:33.096Z,27.00
2023-02-15T10:19:26.645Z,26.00
2023-02-15T10:21:10.863Z,22.00
2023-02-15T10:22:12.474Z,19.33
2023-02-15T10:22:51.156Z,20.00
2023-02-15T10:23:59.134Z,21.00
2023-02-15T10:26:49.274Z,23.33
2023-02-15T10:27:27.783Z,44.00
2023-02-15T10:28:21.520Z,90.33
2023-02-15T10:30:07.725Z,47.00
2023-02-15T10:32:47.798Z,40.00
2023-02-15T10:33:40.553Z,84.33
2023-02-15T10:35:26.814Z,71.67
2023-02-15T10:36:33.974Z,141.00
2023-02-15T10:37:39.559Z,71.33
2023-02-15T10:40:20.701Z,48.33
2023-02-15T10:41:00.823Z,122.00
2023-02-15T10:41:54.898Z,92.67
2023-02-15T10:42:46.958Z,235.33
2023-02-15T10:43:28.077Z,138.00
2023-02-15T10:44:22.103Z,258.67
2023-02-15T10:45:31.641Z,97.67
2023-02-15T10:48:37.485Z,125.00
2023-02-15T10:49:56.420Z,138.33
2023-02-15T10:55:17.088Z,25.00
2023-02-15T10:56:06.917Z,50.00
2023-02-15T10:57:04.858Z,111.33
2023-02-15T10:57:53.565Z,46.33
2023-02-15T10:58:46.983Z,28.00
2023-02-15T10:59:34.811Z,109.00
2023-02-15T11:00:40.234Z,56.00
2023-02-15T11:01:43.842Z,53.33
2023-02-15T11:03:00.664Z,169.00
2023-02-15T11:04:02.618Z,64.33
2023-02-15T11:04:51.949Z,52.67
2023-02-15T11:05:56.332Z,103.67
2023-02-15T11:07:20.676Z,37.33
2023-02-15T11:09:26.289Z,28.00
2023-02-15T11:10:24.101Z,27.33
2023-02-15T11:11:10.052Z,73.00
2023-02-15T11:11:57.443Z,202.00
2023-02-15T11:12:43.502Z,121.00
2023-02-15T11:13:35.136Z,56.33
2023-02-15T11:14:24.630Z,26.00
2023-02-15T11:15:21.152Z,31.00
2023-02-15T11:16:17.630Z,24.67
2023-02-15T11:17:11.026Z,24.33
2023-02-15T11:18:01.783Z,51.33
2023-02-15T11:18:54.834Z,77.33
2023-02-15T11:19:41.114Z,69.67
2023-02-15T11:20:44.310Z,63.00
2023-02-15T11:21:29.435Z,54.00
2023-02-15T11:22:54.508Z,52.33
2023-02-15T11:23:41.621Z,35.33
2023-02-15T11:24:31.038Z,91.67
2023-02-15T11:25:29.728Z,67.00
2023-02-15T11:26:38.591Z,44.00
2023-02-15T11:27:29.253Z,39.33
2023-02-15T11:28:25.962Z,39.00
2023-02-15T11:30:34.005Z,41.33
2023-02-15T11:31:13.267Z,30.33
2023-02-15T11:32:03.051Z,28.33
2023-02-15T11:34:44.870Z,70.67
2023-02-15T11:36:18.377Z,76.67
2023-02-15T11:37:05.985Z,68.67
2023-02-15T11:37:47.977Z,65.00
2023-02-15T11:38:37.619Z,43.33
2023-02-15T11:39:19.913Z,39.00
2023-02-15T11:40:27.432Z,60.00
2023-02-15T11:41:12.380Z,57.33
2023-02-15T11:42:01.300Z,51.67
2023-02-15T11:44:25.289Z,48.00
2023-02-15T11:45:46.261Z,58.67
2023-02-15T11:46:25.484Z,41.33
2023-02-15T11:47:13.822Z,56.00
2023-02-15T11:47:52.771Z,141.00
2023-02-15T11:48:40.358Z,131.33
2023-02-15T11:49:36.273Z,80.33
2023-02-15T11:50:24.138Z,80.00
2023-02-15T11:51:29.090Z,74.00
2023-02-15T11:52:52.161Z,29.67
2023-02-15T11:53:39.987Z,23.67
2023-02-15T11:55:47.482Z,41.00
2023-02-15T11:56:34.655Z,37.00
2023-02-15T11:57:41.586Z,33.33
2023-02-15T11:58:20.766Z,40.67
2023-02-15T11:59:19.968Z,52.00
2023-02-15T12:02:20.228Z,25.00
2023-02-15T12:03:25.965Z,27.67
2023-02-15T12:04:16.445Z,30.00
2023-02-15T12:05:05.228Z,29.33
2023-02-15T12:05:54.567Z,31.33
2023-02-15T12:07:56.867Z,32.67
2023-02-15T12:09:36.480Z,29.67
2023-02-15T12:10:30.342Z,29.67
2023-02-15T12:11:20.943Z,28.00
2023-02-15T12:13:21.810Z,29.67
2023-02-15T12:14:01.823Z,32.67
2023-02-15T12:15:00.929Z,34.67
2023-02-15T12:15:51.092Z,30.00
2023-02-15T12:16:58.444Z,27.33
2023-02-15T12:20:05.847Z,28.00
2023-02-15T12:21:39.192Z,34.00
2023-02-15T12:23:06.379Z,53.33
2023-02-15T12:24:38.141Z,45.00
2023-02-15T12:28:01.691Z,60.00
2023-02-15T12:28:55.967Z,89.00
2023-02-15T12:29:45.296Z,106.67
2023-02-15T12:30:37.132Z,106.67
2023-02-15T12:31:33.270Z,86.67
2023-02-15T12:32:37.670Z,94.67
2023-02-15T12:34:51.496Z,79.67
2023-02-15T12:38:52.375Z,104.00
2023-02-15T12:41:44.100Z,97.67
2023-02-15T12:42:42.627Z,121.00
2023-02-15T12:43:45.810Z,100.33
2023-02-15T12:51:37.161Z,104.00
2023-02-15T12:52:21.386Z,129.67
2023-02-15T12:55:09.922Z,88.67
2023-02-15T12:58:04.358Z,101.00
2023-02-15T12:59:15.610Z,92.67
2023-02-15T13:12:28.868Z,96.33
2023-02-15T13:13:04.192Z,115.33
2023-02-15T13:13:51.704Z,124.67
2023-02-15T13:14:34.774Z,100.00
2023-02-15T13:25:38.928Z,139.33
2023-02-15T13:27:41.137Z,192.00
2023-02-15T13:28:47.143Z,138.33
2023-02-15T13:29:45.055Z,128.67
2023-02-15T13:36:26.865Z,87.67
2023-02-15T13:38:53.254Z,81.33
2023-02-15T13:45:19.888Z,104.33
2023-02-15T13:51:02.856Z,63.67
2023-02-15T13:51:46.882Z,96.33
2023-02-15T14:10:15.573Z,107.67
2023-02-15T14:11:14.392Z,116.00
2023-02-15T14:12:17.739Z,184.00
2023-02-15T14:13:17.025Z,138.00
2023-02-15T14:29:39.621Z,120.67
2023-02-15T14:30:43.921Z,172.00
2023-02-15T14:31:17.088Z,155.33
2023-02-15T14:31:55.139Z,156.67
2023-02-15T14:37:49.336Z,178.67
2023-02-15T14:39:27.874Z,103.67
2023-02-15T14:40:24.787Z,94.33
2023-02-15T14:43:14.908Z,113.67
2023-02-15T14:44:03.258Z,103.33
2023-02-15T14:44:44.354Z,111.00
2023-02-15T14:45:51.368Z,112.67
2023-02-15T14:54:48.847Z,153.00
2023-02-15T14:55:37.636Z,109.33
2023-02-15T14:56:12.258Z,78.67
2023-02-15T14:56:47.947Z,86.33
2023-02-15T14:57:19.577Z,108.00
2023-02-15T14:58:00.324Z,123.67
2023-02-15T14:58:32.107Z,125.33
2023-02-15T14:59:12.783Z,119.00
2023-02-15T14:59:59.350Z,118.33
2023-02-15T15:00:39.974Z,188.33
2023-02-15T15:05:36.351Z,108.33